sensor_id;sensor_type;location;lat;lon;timestamp;P1;durP1;ratioP1;P2;durP2;ratioP2
4468;SDS011;2247;42.666;23.292;2022-11-21T00:00:39;5.00;;;4.00;;
4468;SDS011;2247;42.666;23.292;2022-11-21T00:03:08;5.93;;;4.17;;
4468;SDS011;2247;42.666;23.292;2022-11-21T00:05:37;6.00;;;3.60;;
4468;SDS011;2247;42.666;23.292;2022-11-21T00:08:05;7.23;;;3.87;;
4468;SDS011;2247;42.666;23.292;2022-11-21T00:10:34;5.33;;;3.77;;
4468;SDS011;2247;42.666;23.292;2022-11-21T00:13:03;7.70;;;3.97;;
4468;SDS011;2247;42.666;23.292;2022-11-21T00:15:31;4.67;;;3.63;;
4468;SDS011;2247;42.666;23.292;2022-11-21T00:18:00;5.23;;;3.80;;
4468;SDS011;2247;42.666;23.292;2022-11-21T00:20:28;4.70;;;4.00;;
4468;SDS011;2247;42.666;23.292;2022-11-21T00:22:56;4.83;;;3.83;;
4468;SDS011;2247;42.666;23.292;2022-11-21T00:25:23;4.30;;;3.80;;
4468;SDS011;2247;42.666;23.292;2022-11-21T00:27:52;4.47;;;3.83;;
4468;SDS011;2247;42.666;23.292;2022-11-21T00:30:20;6.30;;;4.50;;
4468;SDS011;2247;42.666;23.292;2022-11-21T00:32:46;5.30;;;4.43;;
4468;SDS011;2247;42.666;23.292;2022-11-21T00:35:14;5.07;;;4.00;;
4468;SDS011;2247;42.666;23.292;2022-11-21T00:37:40;5.10;;;4.60;;
4468;SDS011;2247;42.666;23.292;2022-11-21T00:40:09;6.00;;;4.03;;
4468;SDS011;2247;42.666;23.292;2022-11-21T00:42:37;5.90;;;4.43;;
4468;SDS011;2247;42.666;23.292;2022-11-21T00:45:06;5.50;;;4.67;;
4468;SDS011;2247;42.666;23.292;2022-11-21T00:47:34;11.13;;;5.17;;
4468;SDS011;2247;42.666;23.292;2022-11-21T00:50:02;8.77;;;4.60;;
4468;SDS011;2247;42.666;23.292;2022-11-21T00:52:29;5.33;;;4.67;;
4468;SDS011;2247;42.666;23.292;2022-11-21T00:54:56;8.60;;;5.13;;
4468;SDS011;2247;42.666;23.292;2022-11-21T00:57:23;8.73;;;5.50;;
4468;SDS011;2247;42.666;23.292;2022-11-21T00:59:50;6.13;;;4.63;;
4468;SDS011;2247;42.666;23.292;2022-11-21T01:02:19;7.00;;;5.07;;
4468;SDS011;2247;42.666;23.292;2022-11-21T01:04:46;6.10;;;4.90;;
4468;SDS011;2247;42.666;23.292;2022-11-21T01:07:14;10.57;;;5.47;;
4468;SDS011;2247;42.666;23.292;2022-11-21T01:09:41;6.13;;;4.77;;
4468;SDS011;2247;42.666;23.292;2022-11-21T01:12:08;3.20;;;2.43;;
4468;SDS011;2247;42.666;23.292;2022-11-21T01:14:35;4.23;;;3.80;;
4468;SDS011;2247;42.666;23.292;2022-11-21T01:17:02;4.63;;;3.60;;
4468;SDS011;2247;42.666;23.292;2022-11-21T01:19:31;6.97;;;5.10;;
4468;SDS011;2247;42.666;23.292;2022-11-21T01:21:58;5.03;;;4.00;;
4468;SDS011;2247;42.666;23.292;2022-11-21T01:24:26;6.03;;;4.37;;
4468;SDS011;2247;42.666;23.292;2022-11-21T01:26:53;8.60;;;4.70;;
4468;SDS011;2247;42.666;23.292;2022-11-21T01:29:20;4.43;;;4.03;;
4468;SDS011;2247;42.666;23.292;2022-11-21T01:31:48;7.00;;;4.80;;
4468;SDS011;2247;42.666;23.292;2022-11-21T01:34:15;6.30;;;5.27;;
4468;SDS011;2247;42.666;23.292;2022-11-21T01:36:44;9.43;;;6.43;;
4468;SDS011;2247;42.666;23.292;2022-11-21T01:39:11;6.07;;;5.40;;
4468;SDS011;2247;42.666;23.292;2022-11-21T01:41:39;9.20;;;4.97;;
4468;SDS011;2247;42.666;23.292;2022-11-21T01:44:09;6.83;;;5.63;;
4468;SDS011;2247;42.666;23.292;2022-11-21T01:46:43;7.00;;;5.33;;
4468;SDS011;2247;42.666;23.292;2022-11-21T01:49:11;5.80;;;4.27;;
4468;SDS011;2247;42.666;23.292;2022-11-21T01:51:43;5.30;;;4.77;;
4468;SDS011;2247;42.666;23.292;2022-11-21T01:54:17;5.30;;;4.50;;
4468;SDS011;2247;42.666;23.292;2022-11-21T01:56:49;9.20;;;4.20;;
4468;SDS011;2247;42.666;23.292;2022-11-21T01:59:26;9.57;;;5.03;;
4468;SDS011;2247;42.666;23.292;2022-11-21T02:01:57;4.70;;;4.20;;
4468;SDS011;2247;42.666;23.292;2022-11-21T02:04:27;6.80;;;4.60;;
4468;SDS011;2247;42.666;23.292;2022-11-21T02:06:58;5.40;;;4.47;;
4468;SDS011;2247;42.666;23.292;2022-11-21T02:09:29;4.77;;;3.17;;
4468;SDS011;2247;42.666;23.292;2022-11-21T02:12:00;27.97;;;3.20;;
4468;SDS011;2247;42.666;23.292;2022-11-21T02:14:31;2.40;;;1.80;;
4468;SDS011;2247;42.666;23.292;2022-11-21T02:16:59;5.43;;;3.70;;
4468;SDS011;2247;42.666;23.292;2022-11-21T02:19:33;12.10;;;4.43;;
4468;SDS011;2247;42.666;23.292;2022-11-21T02:22:12;4.67;;;4.17;;
4468;SDS011;2247;42.666;23.292;2022-11-21T02:24:55;7.63;;;4.90;;
4468;SDS011;2247;42.666;23.292;2022-11-21T02:27:24;5.93;;;3.90;;
4468;SDS011;2247;42.666;23.292;2022-11-21T02:29:52;5.43;;;3.23;;
4468;SDS011;2247;42.666;23.292;2022-11-21T02:32:20;9.90;;;3.90;;
4468;SDS011;2247;42.666;23.292;2022-11-21T02:34:48;5.87;;;4.20;;
4468;SDS011;2247;42.666;23.292;2022-11-21T02:37:15;7.80;;;3.30;;
4468;SDS011;2247;42.666;23.292;2022-11-21T02:39:44;4.43;;;3.53;;
4468;SDS011;2247;42.666;23.292;2022-11-21T02:42:15;8.20;;;3.90;;
4468;SDS011;2247;42.666;23.292;2022-11-21T02:44:48;5.23;;;2.20;;
4468;SDS011;2247;42.666;23.292;2022-11-21T02:47:21;5.27;;;2.43;;
4468;SDS011;2247;42.666;23.292;2022-11-21T02:49:52;5.20;;;3.07;;
4468;SDS011;2247;42.666;23.292;2022-11-21T02:52:25;4.50;;;3.63;;
4468;SDS011;2247;42.666;23.292;2022-11-21T02:54:52;4.50;;;2.97;;
4468;SDS011;2247;42.666;23.292;2022-11-21T02:57:21;4.23;;;3.73;;
4468;SDS011;2247;42.666;23.292;2022-11-21T02:59:48;4.87;;;3.30;;
4468;SDS011;2247;42.666;23.292;2022-11-21T03:02:15;3.83;;;3.30;;
4468;SDS011;2247;42.666;23.292;2022-11-21T03:04:42;3.70;;;3.07;;
4468;SDS011;2247;42.666;23.292;2022-11-21T03:07:09;4.40;;;3.30;;
4468;SDS011;2247;42.666;23.292;2022-11-21T03:09:36;7.40;;;3.27;;
4468;SDS011;2247;42.666;23.292;2022-11-21T03:12:07;7.07;;;3.03;;
4468;SDS011;2247;42.666;23.292;2022-11-21T03:14:36;4.83;;;2.87;;
4468;SDS011;2247;42.666;23.292;2022-11-21T03:17:03;6.60;;;2.30;;
4468;SDS011;2247;42.666;23.292;2022-11-21T03:19:30;4.73;;;2.00;;
4468;SDS011;2247;42.666;23.292;2022-11-21T03:21:58;5.57;;;2.07;;
4468;SDS011;2247;42.666;23.292;2022-11-21T03:24:25;4.17;;;1.50;;
4468;SDS011;2247;42.666;23.292;2022-11-21T03:26:54;1.90;;;1.70;;
4468;SDS011;2247;42.666;23.292;2022-11-21T03:29:22;3.43;;;1.83;;
4468;SDS011;2247;42.666;23.292;2022-11-21T03:31:50;3.60;;;1.93;;
4468;SDS011;2247;42.666;23.292;2022-11-21T03:34:17;2.03;;;1.80;;
4468;SDS011;2247;42.666;23.292;2022-11-21T03:36:44;3.00;;;1.97;;
4468;SDS011;2247;42.666;23.292;2022-11-21T03:39:11;5.83;;;2.40;;
4468;SDS011;2247;42.666;23.292;2022-11-21T03:41:38;2.57;;;2.03;;
4468;SDS011;2247;42.666;23.292;2022-11-21T03:44:06;1.97;;;1.77;;
4468;SDS011;2247;42.666;23.292;2022-11-21T03:46:34;1.97;;;1.70;;
4468;SDS011;2247;42.666;23.292;2022-11-21T03:49:04;3.13;;;1.20;;
4468;SDS011;2247;42.666;23.292;2022-11-21T03:51:33;13.57;;;1.50;;
4468;SDS011;2247;42.666;23.292;2022-11-21T03:54:00;4.17;;;1.87;;
4468;SDS011;2247;42.666;23.292;2022-11-21T03:56:29;2.10;;;1.40;;
4468;SDS011;2247;42.666;23.292;2022-11-21T03:58:56;15.33;;;1.87;;
4468;SDS011;2247;42.666;23.292;2022-11-21T04:01:24;6.93;;;2.10;;
4468;SDS011;2247;42.666;23.292;2022-11-21T04:03:51;4.90;;;2.07;;
4468;SDS011;2247;42.666;23.292;2022-11-21T04:06:21;4.50;;;1.50;;
4468;SDS011;2247;42.666;23.292;2022-11-21T04:08:48;4.40;;;1.33;;
4468;SDS011;2247;42.666;23.292;2022-11-21T04:11:16;3.83;;;1.50;;
4468;SDS011;2247;42.666;23.292;2022-11-21T04:13:46;2.90;;;1.80;;
4468;SDS011;2247;42.666;23.292;2022-11-21T04:16:13;9.43;;;1.40;;
4468;SDS011;2247;42.666;23.292;2022-11-21T04:18:40;4.33;;;1.10;;
4468;SDS011;2247;42.666;23.292;2022-11-21T04:21:07;2.10;;;1.10;;
4468;SDS011;2247;42.666;23.292;2022-11-21T04:23:36;3.57;;;1.20;;
4468;SDS011;2247;42.666;23.292;2022-11-21T04:26:04;2.23;;;1.37;;
4468;SDS011;2247;42.666;23.292;2022-11-21T04:28:31;4.17;;;1.30;;
4468;SDS011;2247;42.666;23.292;2022-11-21T04:31:03;6.20;;;1.23;;
4468;SDS011;2247;42.666;23.292;2022-11-21T04:33:32;5.13;;;1.63;;
4468;SDS011;2247;42.666;23.292;2022-11-21T04:35:59;5.17;;;1.57;;
4468;SDS011;2247;42.666;23.292;2022-11-21T04:38:27;1.50;;;1.17;;
4468;SDS011;2247;42.666;23.292;2022-11-21T04:40:56;6.53;;;1.63;;
4468;SDS011;2247;42.666;23.292;2022-11-21T04:43:24;6.23;;;1.63;;
4468;SDS011;2247;42.666;23.292;2022-11-21T04:45:52;2.93;;;1.30;;
4468;SDS011;2247;42.666;23.292;2022-11-21T04:48:19;3.07;;;1.10;;
4468;SDS011;2247;42.666;23.292;2022-11-21T04:50:47;1.33;;;0.97;;
4468;SDS011;2247;42.666;23.292;2022-11-21T04:53:13;2.47;;;0.80;;
4468;SDS011;2247;42.666;23.292;2022-11-21T04:55:40;5.77;;;1.20;;
4468;SDS011;2247;42.666;23.292;2022-11-21T04:58:09;2.60;;;1.20;;
4468;SDS011;2247;42.666;23.292;2022-11-21T05:00:36;5.27;;;2.13;;
4468;SDS011;2247;42.666;23.292;2022-11-21T05:03:04;6.23;;;2.13;;
4468;SDS011;2247;42.666;23.292;2022-11-21T05:05:32;3.73;;;2.20;;
4468;SDS011;2247;42.666;23.292;2022-11-21T05:07:59;3.83;;;1.53;;
4468;SDS011;2247;42.666;23.292;2022-11-21T05:10:27;3.77;;;1.80;;
4468;SDS011;2247;42.666;23.292;2022-11-21T05:13:18;7.37;;;2.23;;
4468;SDS011;2247;42.666;23.292;2022-11-21T05:15:47;2.10;;;1.60;;
4468;SDS011;2247;42.666;23.292;2022-11-21T05:18:16;3.80;;;1.80;;
4468;SDS011;2247;42.666;23.292;2022-11-21T05:20:45;2.23;;;1.50;;
4468;SDS011;2247;42.666;23.292;2022-11-21T05:23:12;2.80;;;1.50;;
4468;SDS011;2247;42.666;23.292;2022-11-21T05:25:40;7.60;;;1.87;;
4468;SDS011;2247;42.666;23.292;2022-11-21T05:28:07;4.83;;;1.80;;
4468;SDS011;2247;42.666;23.292;2022-11-21T05:30:36;3.23;;;1.87;;
4468;SDS011;2247;42.666;23.292;2022-11-21T05:33:04;2.40;;;1.30;;
4468;SDS011;2247;42.666;23.292;2022-11-21T05:35:31;5.40;;;1.63;;
4468;SDS011;2247;42.666;23.292;2022-11-21T05:37:58;4.67;;;1.60;;
4468;SDS011;2247;42.666;23.292;2022-11-21T05:40:25;1.73;;;1.63;;
4468;SDS011;2247;42.666;23.292;2022-11-21T05:42:53;5.27;;;1.70;;
4468;SDS011;2247;42.666;23.292;2022-11-21T05:45:40;2.60;;;1.30;;
4468;SDS011;2247;42.666;23.292;2022-11-21T05:48:07;3.17;;;1.20;;
4468;SDS011;2247;42.666;23.292;2022-11-21T05:50:34;1.40;;;1.30;;
4468;SDS011;2247;42.666;23.292;2022-11-21T05:53:01;1.70;;;1.20;;
4468;SDS011;2247;42.666;23.292;2022-11-21T05:55:29;2.20;;;1.20;;
4468;SDS011;2247;42.666;23.292;2022-11-21T05:57:57;2.17;;;1.50;;
4468;SDS011;2247;42.666;23.292;2022-11-21T06:00:25;2.43;;;1.13;;
4468;SDS011;2247;42.666;23.292;2022-11-21T06:02:53;1.57;;;1.20;;
4468;SDS011;2247;42.666;23.292;2022-11-21T06:05:37;0.80;;;0.80;;
4468;SDS011;2247;42.666;23.292;2022-11-21T06:08:04;1.23;;;1.10;;
4468;SDS011;2247;42.666;23.292;2022-11-21T06:10:32;2.30;;;1.10;;
4468;SDS011;2247;42.666;23.292;2022-11-21T06:12:59;1.00;;;1.00;;
4468;SDS011;2247;42.666;23.292;2022-11-21T06:15:26;5.07;;;1.33;;
4468;SDS011;2247;42.666;23.292;2022-11-21T06:20:33;1.70;;;1.60;;
4468;SDS011;2247;42.666;23.292;2022-11-21T06:23:00;1.83;;;1.47;;
4468;SDS011;2247;42.666;23.292;2022-11-21T06:25:27;1.50;;;1.40;;
4468;SDS011;2247;42.666;23.292;2022-11-21T06:27:54;1.40;;;1.30;;
4468;SDS011;2247;42.666;23.292;2022-11-21T06:30:21;3.03;;;1.60;;
4468;SDS011;2247;42.666;23.292;2022-11-21T06:32:48;7.77;;;5.70;;
4468;SDS011;2247;42.666;23.292;2022-11-21T06:35:16;2.90;;;2.10;;
4468;SDS011;2247;42.666;23.292;2022-11-21T06:37:44;1.93;;;1.83;;
4468;SDS011;2247;42.666;23.292;2022-11-21T06:40:11;2.10;;;1.30;;
4468;SDS011;2247;42.666;23.292;2022-11-21T06:42:38;2.20;;;2.00;;
4468;SDS011;2247;42.666;23.292;2022-11-21T06:45:05;2.93;;;1.87;;
4468;SDS011;2247;42.666;23.292;2022-11-21T07:00:53;1.93;;;1.40;;
4468;SDS011;2247;42.666;23.292;2022-11-21T07:03:20;2.37;;;1.50;;
4468;SDS011;2247;42.666;23.292;2022-11-21T07:05:48;1.90;;;1.40;;
4468;SDS011;2247;42.666;23.292;2022-11-21T07:08:16;1.67;;;1.50;;
4468;SDS011;2247;42.666;23.292;2022-11-21T07:10:43;1.80;;;1.70;;
4468;SDS011;2247;42.666;23.292;2022-11-21T07:13:10;2.70;;;2.40;;
4468;SDS011;2247;42.666;23.292;2022-11-21T07:15:50;1.77;;;1.67;;
4468;SDS011;2247;42.666;23.292;2022-11-21T07:18:21;3.57;;;1.63;;
4468;SDS011;2247;42.666;23.292;2022-11-21T07:20:48;5.53;;;1.90;;
4468;SDS011;2247;42.666;23.292;2022-11-21T07:25:54;3.20;;;1.50;;
4468;SDS011;2247;42.666;23.292;2022-11-21T07:28:42;2.73;;;1.63;;
4468;SDS011;2247;42.666;23.292;2022-11-21T07:31:09;2.97;;;1.53;;
4468;SDS011;2247;42.666;23.292;2022-11-21T07:33:38;1.37;;;1.30;;
4468;SDS011;2247;42.666;23.292;2022-11-21T07:36:08;1.23;;;1.13;;
4468;SDS011;2247;42.666;23.292;2022-11-21T07:38:35;1.33;;;1.20;;
4468;SDS011;2247;42.666;23.292;2022-11-21T07:41:03;1.20;;;1.20;;
4468;SDS011;2247;42.666;23.292;2022-11-21T07:43:29;2.10;;;1.67;;
4468;SDS011;2247;42.666;23.292;2022-11-21T07:45:57;1.77;;;1.30;;
4468;SDS011;2247;42.666;23.292;2022-11-21T07:48:24;1.27;;;1.00;;
4468;SDS011;2247;42.666;23.292;2022-11-21T07:50:52;1.30;;;1.20;;
4468;SDS011;2247;42.666;23.292;2022-11-21T07:53:19;1.80;;;1.57;;
4468;SDS011;2247;42.666;23.292;2022-11-21T07:55:46;1.83;;;1.70;;
4468;SDS011;2247;42.666;23.292;2022-11-21T07:58:14;1.80;;;1.70;;
4468;SDS011;2247;42.666;23.292;2022-11-21T08:00:43;1.63;;;1.53;;
4468;SDS011;2247;42.666;23.292;2022-11-21T08:03:10;1.77;;;1.63;;
4468;SDS011;2247;42.666;23.292;2022-11-21T08:05:38;1.40;;;1.30;;
4468;SDS011;2247;42.666;23.292;2022-11-21T08:08:10;0.93;;;0.93;;
4468;SDS011;2247;42.666;23.292;2022-11-21T08:10:38;1.40;;;1.30;;
4468;SDS011;2247;42.666;23.292;2022-11-21T08:13:06;1.60;;;1.37;;
4468;SDS011;2247;42.666;23.292;2022-11-21T08:15:33;1.23;;;1.13;;
4468;SDS011;2247;42.666;23.292;2022-11-21T08:18:05;1.10;;;1.00;;
4468;SDS011;2247;42.666;23.292;2022-11-21T08:20:33;1.53;;;1.13;;
4468;SDS011;2247;42.666;23.292;2022-11-21T08:23:00;1.37;;;1.27;;
4468;SDS011;2247;42.666;23.292;2022-11-21T08:25:29;2.20;;;2.00;;
4468;SDS011;2247;42.666;23.292;2022-11-21T08:27:56;7.30;;;1.50;;
4468;SDS011;2247;42.666;23.292;2022-11-21T08:30:24;4.80;;;1.60;;
4468;SDS011;2247;42.666;23.292;2022-11-21T08:32:51;2.87;;;2.43;;
4468;SDS011;2247;42.666;23.292;2022-11-21T08:35:19;2.00;;;1.90;;
4468;SDS011;2247;42.666;23.292;2022-11-21T08:37:45;4.57;;;2.30;;
4468;SDS011;2247;42.666;23.292;2022-11-21T08:40:13;3.60;;;2.60;;
4468;SDS011;2247;42.666;23.292;2022-11-21T08:42:42;2.47;;;2.20;;
4468;SDS011;2247;42.666;23.292;2022-11-21T08:45:11;2.53;;;2.23;;
4468;SDS011;2247;42.666;23.292;2022-11-21T08:47:38;3.73;;;2.37;;
4468;SDS011;2247;42.666;23.292;2022-11-21T08:50:05;3.27;;;2.47;;
4468;SDS011;2247;42.666;23.292;2022-11-21T08:52:33;4.93;;;2.50;;
4468;SDS011;2247;42.666;23.292;2022-11-21T08:55:00;3.10;;;2.60;;
4468;SDS011;2247;42.666;23.292;2022-11-21T08:57:27;3.33;;;2.20;;
4468;SDS011;2247;42.666;23.292;2022-11-21T08:59:57;2.53;;;2.27;;
4468;SDS011;2247;42.666;23.292;2022-11-21T09:02:25;4.93;;;2.97;;
4468;SDS011;2247;42.666;23.292;2022-11-21T09:04:52;5.47;;;2.93;;
4468;SDS011;2247;42.666;23.292;2022-11-21T09:07:18;3.20;;;2.90;;
4468;SDS011;2247;42.666;23.292;2022-11-21T09:09:45;4.47;;;3.43;;
4468;SDS011;2247;42.666;23.292;2022-11-21T09:12:13;4.10;;;3.00;;
4468;SDS011;2247;42.666;23.292;2022-11-21T09:14:40;3.10;;;2.80;;
4468;SDS011;2247;42.666;23.292;2022-11-21T09:17:27;2.50;;;2.10;;
4468;SDS011;2247;42.666;23.292;2022-11-21T09:20:12;2.33;;;2.13;;
4468;SDS011;2247;42.666;23.292;2022-11-21T09:22:41;3.00;;;2.47;;
4468;SDS011;2247;42.666;23.292;2022-11-21T09:25:08;2.77;;;2.50;;
4468;SDS011;2247;42.666;23.292;2022-11-21T09:27:36;6.23;;;2.27;;
4468;SDS011;2247;42.666;23.292;2022-11-21T09:30:03;2.47;;;2.27;;
4468;SDS011;2247;42.666;23.292;2022-11-21T09:32:33;2.53;;;2.33;;
4468;SDS011;2247;42.666;23.292;2022-11-21T09:35:01;2.10;;;2.00;;
4468;SDS011;2247;42.666;23.292;2022-11-21T09:37:29;2.60;;;2.40;;
4468;SDS011;2247;42.666;23.292;2022-11-21T09:39:56;3.93;;;2.80;;
4468;SDS011;2247;42.666;23.292;2022-11-21T09:45:18;3.83;;;2.60;;
4468;SDS011;2247;42.666;23.292;2022-11-21T09:47:54;6.10;;;2.50;;
4468;SDS011;2247;42.666;23.292;2022-11-21T09:50:26;2.43;;;2.10;;
4468;SDS011;2247;42.666;23.292;2022-11-21T09:52:59;4.43;;;3.00;;
4468;SDS011;2247;42.666;23.292;2022-11-21T09:55:34;4.80;;;3.37;;
4468;SDS011;2247;42.666;23.292;2022-11-21T09:58:10;3.63;;;2.80;;
4468;SDS011;2247;42.666;23.292;2022-11-21T10:00:44;3.10;;;2.70;;
4468;SDS011;2247;42.666;23.292;2022-11-21T10:03:13;4.90;;;2.90;;
4468;SDS011;2247;42.666;23.292;2022-11-21T10:05:43;3.23;;;2.93;;
4468;SDS011;2247;42.666;23.292;2022-11-21T10:08:15;3.13;;;2.87;;
4468;SDS011;2247;42.666;23.292;2022-11-21T10:10:52;4.33;;;3.10;;
4468;SDS011;2247;42.666;23.292;2022-11-21T10:13:43;4.17;;;3.03;;
4468;SDS011;2247;42.666;23.292;2022-11-21T10:16:20;3.73;;;2.60;;
4468;SDS011;2247;42.666;23.292;2022-11-21T10:19:06;3.03;;;2.73;;
4468;SDS011;2247;42.666;23.292;2022-11-21T10:24:55;6.97;;;5.43;;
4468;SDS011;2247;42.666;23.292;2022-11-21T10:27:30;7.73;;;5.47;;
4468;SDS011;2247;42.666;23.292;2022-11-21T10:30:02;6.70;;;5.23;;
4468;SDS011;2247;42.666;23.292;2022-11-21T10:32:34;6.80;;;5.17;;
4468;SDS011;2247;42.666;23.292;2022-11-21T10:35:12;6.43;;;4.70;;
4468;SDS011;2247;42.666;23.292;2022-11-21T10:37:44;6.50;;;5.17;;
4468;SDS011;2247;42.666;23.292;2022-11-21T10:40:31;6.13;;;4.20;;
4468;SDS011;2247;42.666;23.292;2022-11-21T10:43:01;4.67;;;3.80;;
4468;SDS011;2247;42.666;23.292;2022-11-21T10:45:45;6.07;;;4.43;;
4468;SDS011;2247;42.666;23.292;2022-11-21T10:48:12;4.80;;;4.30;;
4468;SDS011;2247;42.666;23.292;2022-11-21T10:50:45;5.07;;;3.97;;
4468;SDS011;2247;42.666;23.292;2022-11-21T10:53:23;4.10;;;3.67;;
4468;SDS011;2247;42.666;23.292;2022-11-21T10:56:10;3.73;;;3.37;;
4468;SDS011;2247;42.666;23.292;2022-11-21T10:58:40;5.60;;;4.10;;
4468;SDS011;2247;42.666;23.292;2022-11-21T11:01:18;8.33;;;3.60;;
4468;SDS011;2247;42.666;23.292;2022-11-21T11:03:47;4.23;;;3.03;;
4468;SDS011;2247;42.666;23.292;2022-11-21T11:06:31;3.80;;;3.40;;
4468;SDS011;2247;42.666;23.292;2022-11-21T11:08:59;4.60;;;3.20;;
4468;SDS011;2247;42.666;23.292;2022-11-21T11:11:26;4.07;;;3.67;;
4468;SDS011;2247;42.666;23.292;2022-11-21T11:13:55;3.70;;;3.17;;
4468;SDS011;2247;42.666;23.292;2022-11-21T11:16:23;4.10;;;3.50;;
4468;SDS011;2247;42.666;23.292;2022-11-21T11:18:54;3.17;;;2.87;;
4468;SDS011;2247;42.666;23.292;2022-11-21T11:21:26;3.10;;;2.80;;
4468;SDS011;2247;42.666;23.292;2022-11-21T11:24:06;3.50;;;3.20;;
4468;SDS011;2247;42.666;23.292;2022-11-21T11:26:50;4.87;;;3.23;;
4468;SDS011;2247;42.666;23.292;2022-11-21T11:29:21;3.40;;;3.10;;
4468;SDS011;2247;42.666;23.292;2022-11-21T11:31:51;3.60;;;3.07;;
4468;SDS011;2247;42.666;23.292;2022-11-21T11:34:22;4.50;;;3.70;;
4468;SDS011;2247;42.666;23.292;2022-11-21T11:36:56;6.03;;;4.80;;
4468;SDS011;2247;42.666;23.292;2022-11-21T11:39:38;6.90;;;4.93;;
4468;SDS011;2247;42.666;23.292;2022-11-21T11:45:33;11.50;;;4.20;;
4468;SDS011;2247;42.666;23.292;2022-11-21T11:48:29;14.03;;;4.40;;
4468;SDS011;2247;42.666;23.292;2022-11-21T11:50:58;5.90;;;3.83;;
4468;SDS011;2247;42.666;23.292;2022-11-21T11:53:28;7.30;;;3.67;;
4468;SDS011;2247;42.666;23.292;2022-11-21T11:56:01;6.50;;;4.50;;
4468;SDS011;2247;42.666;23.292;2022-11-21T11:58:37;6.30;;;4.33;;
4468;SDS011;2247;42.666;23.292;2022-11-21T12:01:09;7.97;;;5.23;;
4468;SDS011;2247;42.666;23.292;2022-11-21T12:03:41;8.27;;;4.30;;
4468;SDS011;2247;42.666;23.292;2022-11-21T12:06:14;7.83;;;4.40;;
4468;SDS011;2247;42.666;23.292;2022-11-21T12:08:45;4.30;;;3.80;;
4468;SDS011;2247;42.666;23.292;2022-11-21T12:11:27;4.40;;;3.73;;
4468;SDS011;2247;42.666;23.292;2022-11-21T12:14:30;4.40;;;3.63;;
4468;SDS011;2247;42.666;23.292;2022-11-21T12:17:24;5.93;;;4.20;;
4468;SDS011;2247;42.666;23.292;2022-11-21T12:19:56;5.37;;;4.30;;
4468;SDS011;2247;42.666;23.292;2022-11-21T12:22:25;5.50;;;3.83;;
4468;SDS011;2247;42.666;23.292;2022-11-21T12:24:51;6.87;;;3.80;;
4468;SDS011;2247;42.666;23.292;2022-11-21T12:27:23;5.00;;;3.63;;
4468;SDS011;2247;42.666;23.292;2022-11-21T12:30:02;3.37;;;2.90;;
4468;SDS011;2247;42.666;23.292;2022-11-21T12:32:51;3.73;;;2.63;;
4468;SDS011;2247;42.666;23.292;2022-11-21T12:35:31;3.50;;;2.83;;
4468;SDS011;2247;42.666;23.292;2022-11-21T12:38:27;8.03;;;4.60;;
4468;SDS011;2247;42.666;23.292;2022-11-21T12:41:06;13.30;;;4.50;;
4468;SDS011;2247;42.666;23.292;2022-11-21T12:44:01;5.60;;;3.80;;
4468;SDS011;2247;42.666;23.292;2022-11-21T12:46:42;4.80;;;3.60;;
4468;SDS011;2247;42.666;23.292;2022-11-21T12:49:22;4.63;;;3.70;;
4468;SDS011;2247;42.666;23.292;2022-11-21T12:52:13;5.07;;;3.90;;
4468;SDS011;2247;42.666;23.292;2022-11-21T12:55:10;9.23;;;4.93;;
4468;SDS011;2247;42.666;23.292;2022-11-21T13:01:03;6.43;;;4.93;;
4468;SDS011;2247;42.666;23.292;2022-11-21T13:03:43;6.03;;;4.40;;
4468;SDS011;2247;42.666;23.292;2022-11-21T13:06:17;7.20;;;5.50;;
4468;SDS011;2247;42.666;23.292;2022-11-21T13:08:48;9.90;;;5.67;;
4468;SDS011;2247;42.666;23.292;2022-11-21T13:11:20;7.23;;;5.10;;
4468;SDS011;2247;42.666;23.292;2022-11-21T13:14:14;5.57;;;4.90;;
4468;SDS011;2247;42.666;23.292;2022-11-21T13:16:51;5.70;;;4.27;;
4468;SDS011;2247;42.666;23.292;2022-11-21T13:19:30;7.87;;;4.70;;
4468;SDS011;2247;42.666;23.292;2022-11-21T13:22:02;4.13;;;3.73;;
4468;SDS011;2247;42.666;23.292;2022-11-21T13:27:29;5.73;;;4.87;;
4468;SDS011;2247;42.666;23.292;2022-11-21T13:30:21;7.63;;;5.00;;
4468;SDS011;2247;42.666;23.292;2022-11-21T13:32:51;5.70;;;4.67;;
4468;SDS011;2247;42.666;23.292;2022-11-21T13:38:20;5.23;;;3.70;;
4468;SDS011;2247;42.666;23.292;2022-11-21T13:40:47;5.10;;;3.67;;
4468;SDS011;2247;42.666;23.292;2022-11-21T13:43:28;3.63;;;3.33;;
4468;SDS011;2247;42.666;23.292;2022-11-21T13:45:55;3.50;;;3.20;;
4468;SDS011;2247;42.666;23.292;2022-11-21T13:51:33;3.83;;;3.40;;
4468;SDS011;2247;42.666;23.292;2022-11-21T13:57:31;4.90;;;4.23;;
4468;SDS011;2247;42.666;23.292;2022-11-21T14:09:13;4.33;;;3.60;;
4468;SDS011;2247;42.666;23.292;2022-11-21T14:11:46;3.57;;;3.30;;
4468;SDS011;2247;42.666;23.292;2022-11-21T14:14:27;7.80;;;3.70;;
4468;SDS011;2247;42.666;23.292;2022-11-21T14:17:01;5.00;;;3.80;;
4468;SDS011;2247;42.666;23.292;2022-11-21T14:19:49;4.97;;;3.70;;
4468;SDS011;2247;42.666;23.292;2022-11-21T14:22:25;4.57;;;3.83;;
4468;SDS011;2247;42.666;23.292;2022-11-21T14:24:56;5.97;;;4.00;;
4468;SDS011;2247;42.666;23.292;2022-11-21T14:27:25;4.03;;;3.63;;
4468;SDS011;2247;42.666;23.292;2022-11-21T14:29:55;6.23;;;4.27;;
4468;SDS011;2247;42.666;23.292;2022-11-21T14:32:26;5.07;;;4.00;;
4468;SDS011;2247;42.666;23.292;2022-11-21T14:35:06;5.13;;;4.00;;
4468;SDS011;2247;42.666;23.292;2022-11-21T14:37:37;5.17;;;4.67;;
4468;SDS011;2247;42.666;23.292;2022-11-21T14:40:09;6.27;;;4.60;;
4468;SDS011;2247;42.666;23.292;2022-11-21T14:42:39;8.53;;;4.70;;
4468;SDS011;2247;42.666;23.292;2022-11-21T14:45:07;5.33;;;4.47;;
4468;SDS011;2247;42.666;23.292;2022-11-21T14:47:45;6.03;;;4.40;;
4468;SDS011;2247;42.666;23.292;2022-11-21T14:50:23;4.70;;;4.30;;
4468;SDS011;2247;42.666;23.292;2022-11-21T14:52:54;7.53;;;5.20;;
4468;SDS011;2247;42.666;23.292;2022-11-21T14:55:26;5.63;;;5.03;;
4468;SDS011;2247;42.666;23.292;2022-11-21T14:57:55;4.80;;;4.30;;
4468;SDS011;2247;42.666;23.292;2022-11-21T15:00:25;5.73;;;4.77;;
4468;SDS011;2247;42.666;23.292;2022-11-21T15:02:53;5.07;;;4.60;;
4468;SDS011;2247;42.666;23.292;2022-11-21T15:05:25;4.40;;;4.00;;
4468;SDS011;2247;42.666;23.292;2022-11-21T15:07:58;4.30;;;3.90;;
4468;SDS011;2247;42.666;23.292;2022-11-21T15:10:30;4.13;;;3.73;;
4468;SDS011;2247;42.666;23.292;2022-11-21T15:13:02;8.23;;;3.87;;
4468;SDS011;2247;42.666;23.292;2022-11-21T15:15:33;3.80;;;3.50;;
4468;SDS011;2247;42.666;23.292;2022-11-21T15:18:04;3.80;;;3.50;;
4468;SDS011;2247;42.666;23.292;2022-11-21T15:20:48;4.60;;;4.13;;
4468;SDS011;2247;42.666;23.292;2022-11-21T15:23:29;4.10;;;3.80;;
4468;SDS011;2247;42.666;23.292;2022-11-21T15:25:58;4.20;;;3.60;;
4468;SDS011;2247;42.666;23.292;2022-11-21T15:28:26;9.07;;;5.00;;
4468;SDS011;2247;42.666;23.292;2022-11-21T15:31:13;5.00;;;3.87;;
4468;SDS011;2247;42.666;23.292;2022-11-21T15:33:55;6.13;;;4.00;;
4468;SDS011;2247;42.666;23.292;2022-11-21T15:36:24;4.13;;;3.77;;
4468;SDS011;2247;42.666;23.292;2022-11-21T15:38:54;5.20;;;4.27;;
4468;SDS011;2247;42.666;23.292;2022-11-21T15:41:23;6.37;;;5.20;;
4468;SDS011;2247;42.666;23.292;2022-11-21T15:43:53;5.80;;;4.40;;
4468;SDS011;2247;42.666;23.292;2022-11-21T15:46:21;5.00;;;4.53;;
4468;SDS011;2247;42.666;23.292;2022-11-21T15:48:49;5.17;;;4.67;;
4468;SDS011;2247;42.666;23.292;2022-11-21T15:51:18;5.13;;;4.63;;
4468;SDS011;2247;42.666;23.292;2022-11-21T15:53:47;7.00;;;5.77;;
4468;SDS011;2247;42.666;23.292;2022-11-21T15:56:16;7.03;;;6.00;;
4468;SDS011;2247;42.666;23.292;2022-11-21T15:58:46;7.47;;;5.50;;
4468;SDS011;2247;42.666;23.292;2022-11-21T16:01:14;5.43;;;4.93;;
4468;SDS011;2247;42.666;23.292;2022-11-21T16:03:44;6.07;;;4.80;;
4468;SDS011;2247;42.666;23.292;2022-11-21T16:06:11;5.80;;;4.93;;
4468;SDS011;2247;42.666;23.292;2022-11-21T16:08:38;5.47;;;4.87;;
4468;SDS011;2247;42.666;23.292;2022-11-21T16:11:05;7.13;;;4.37;;
4468;SDS011;2247;42.666;23.292;2022-11-21T16:13:34;6.07;;;4.83;;
4468;SDS011;2247;42.666;23.292;2022-11-21T16:16:01;8.57;;;6.20;;